Pagina principală
METAR-TAF:

METAR-TAF

Aeroporturi :

Brno, Republica Cehă

Latitudine: 49-09N, longitudine: 016-42E, elevație: 241 m

Observații meteo curente

Raportul a fost făcut în urmă cu 41 de minute, la 19:30 UTC
Vânt 10 kt de la Est
Temperatură 10°C
Umiditate 76%
Presiune 1004 hPa
Vizibilitate de 10 km sau mai mult
nu există nori sub 1.500 m și nici cumulonimbus

METAR: LKTB 031930Z 09010KT CAVOK 10/06 Q1004 NOSIG

Ora: 21:11 (20:11 UTC)

Prognoză

Raportul a fost făcut în urmă cu 3 ore și 11 de minute, la 17:00 UTC
Prognoză valabilă de la 03 ora 18 UTC la 04 ora 18 UTC
Vânt 12 kt de la Sud-est
Vizibilitate de 10 km sau mai mult
nu există nori sub 1.500 m și nici cumulonimbus
Devenind
de la 04 ora 08 UTC la 04 ora 10 UTC
Vânt 5 kt de la Sud

TAF: LKTB 031700Z 0318/0418 13012KT CAVOK BECMG 0408/0410 19005KT

Observații și prognoze meteo pentru peste 4.000 de aeroporturi (rapoarte METAR și TAF).

Stațiile disponibile sunt reprezentate pe hartă prin puncte galbene și roșii.

Țineți indicatorul mouse-ului pe punctul dorit pentru a vedea denumirea stației.

Apoi, faceți clic pentru a vedea observațiile și prognozele meteorologice.

Pentru a schimba harta: Pentru mărire, faceți clic pe butoanele verzi cu cruce neagră; pentru micșorare, pe butonul verde cu o liniuță; pentru hărți învecinate, pe săgețile verzi.


METAR-TAF: